createdAt,value
2022-11-19T00:02:50.164Z,16.50
2022-11-19T00:06:18.759Z,17.30
2022-11-19T00:09:45.562Z,23.40
2022-11-19T00:13:13.496Z,22.80
2022-11-19T00:16:40.603Z,20.30
2022-11-19T00:20:08.940Z,17.60
2022-11-19T00:23:35.782Z,20.70
2022-11-19T00:27:02.749Z,20.30
2022-11-19T00:34:16.240Z,28.30
2022-11-19T00:37:43.114Z,22.40
2022-11-19T00:41:10.380Z,28.20
2022-11-19T00:44:37.642Z,24.00
2022-11-19T00:48:04.435Z,23.10
2022-11-19T00:51:32.247Z,22.70
2022-11-19T00:54:58.885Z,19.90
2022-11-19T00:58:25.553Z,21.10
2022-11-19T01:01:52.186Z,18.70
2022-11-19T01:05:19.192Z,19.80
2022-11-19T01:08:46.173Z,18.30
2022-11-19T01:12:12.733Z,19.70
2022-11-19T01:15:39.497Z,18.50
2022-11-19T01:19:07.335Z,17.70
2022-11-19T01:22:33.956Z,20.60
2022-11-19T01:26:00.985Z,18.60
2022-11-19T01:29:27.661Z,19.30
2022-11-19T01:32:54.306Z,18.30
2022-11-19T01:36:22.743Z,20.80
2022-11-19T01:39:49.517Z,22.00
2022-11-19T01:43:16.546Z,22.50
2022-11-19T01:46:43.219Z,20.80
2022-11-19T01:50:10.720Z,22.10
2022-11-19T01:53:39.301Z,20.70
2022-11-19T01:57:10.751Z,20.10
2022-11-19T02:00:37.619Z,20.00
2022-11-19T02:04:05.876Z,19.50
2022-11-19T02:07:35.411Z,29.00
2022-11-19T02:11:16.736Z,22.90
2022-11-19T02:15:02.046Z,21.40
2022-11-19T02:18:43.052Z,21.10
2022-11-19T02:22:29.647Z,21.20
2022-11-19T02:26:24.606Z,30.40
2022-11-19T02:30:09.767Z,28.50
2022-11-19T02:33:45.293Z,23.50
2022-11-19T02:37:16.423Z,21.00
2022-11-19T02:40:49.249Z,22.80
2022-11-19T02:44:41.141Z,22.70
2022-11-19T02:48:13.394Z,23.30
2022-11-19T02:51:40.760Z,24.10
2022-11-19T02:55:08.785Z,21.00
2022-11-19T02:58:54.896Z,19.70
2022-11-19T03:02:41.554Z,19.90
2022-11-19T03:06:13.331Z,23.50
2022-11-19T03:09:47.206Z,22.00
2022-11-19T03:13:39.353Z,19.60
2022-11-19T03:17:13.750Z,21.00
2022-11-19T03:20:45.960Z,23.00
2022-11-19T03:24:19.516Z,23.50
2022-11-19T03:27:49.708Z,21.60
2022-11-19T03:31:19.861Z,19.80
2022-11-19T03:34:50.386Z,23.30
2022-11-19T03:38:32.013Z,21.50
2022-11-19T03:41:59.439Z,22.70
2022-11-19T03:45:30.793Z,22.60
2022-11-19T03:49:00.573Z,21.90
2022-11-19T03:52:27.377Z,22.80
2022-11-19T03:55:58.877Z,20.90
2022-11-19T03:59:29.660Z,22.80
2022-11-19T04:02:56.956Z,28.30
2022-11-19T04:06:23.734Z,37.10
2022-11-19T04:09:50.756Z,28.80
2022-11-19T04:13:17.420Z,21.00
2022-11-19T04:16:44.437Z,19.70
2022-11-19T04:20:12.501Z,18.40
2022-11-19T04:23:39.144Z,19.40
2022-11-19T04:27:05.750Z,19.00
2022-11-19T04:30:32.416Z,18.40
2022-11-19T04:33:59.327Z,18.30
2022-11-19T04:37:25.933Z,20.00
2022-11-19T04:40:52.526Z,19.80
2022-11-19T04:44:19.437Z,18.80
2022-11-19T04:47:46.219Z,19.20
2022-11-19T04:51:13.087Z,17.40
2022-11-19T04:54:40.585Z,20.10
2022-11-19T04:58:07.199Z,21.20
2022-11-19T05:01:34.247Z,21.40
2022-11-19T05:05:01.002Z,22.10
2022-11-19T05:19:38.579Z,26.60
2022-11-19T05:23:05.593Z,24.10
2022-11-19T05:26:32.209Z,19.60
2022-11-19T05:29:58.821Z,21.20
2022-11-19T05:33:28.681Z,18.40
2022-11-19T05:36:57.999Z,18.90
2022-11-19T05:40:25.088Z,20.10
2022-11-19T05:43:51.760Z,19.30
2022-11-19T05:47:20.042Z,18.00
2022-11-19T05:50:46.971Z,20.90
2022-11-19T05:54:15.253Z,21.10
2022-11-19T05:57:41.918Z,21.00
2022-11-19T06:01:09.921Z,19.70
2022-11-19T06:14:26.393Z,20.60
2022-11-19T06:17:53.242Z,21.40
2022-11-19T06:21:19.890Z,20.10
2022-11-19T06:24:47.089Z,19.80
2022-11-19T06:28:13.799Z,19.80
2022-11-19T06:31:40.815Z,20.70
2022-11-19T06:35:08.845Z,21.50
2022-11-19T06:38:36.207Z,20.60
2022-11-19T06:42:16.821Z,18.30
2022-11-19T06:45:43.624Z,22.70
2022-11-19T06:49:19.599Z,23.80
2022-11-19T06:52:47.054Z,22.60
2022-11-19T06:56:14.126Z,23.10
2022-11-19T06:59:40.927Z,21.40
2022-11-19T07:03:07.666Z,21.60
2022-11-19T07:06:34.291Z,23.10
2022-11-19T07:10:01.181Z,23.00
2022-11-19T07:13:48.764Z,22.10
2022-11-19T07:17:15.579Z,22.40
2022-11-19T07:20:42.611Z,23.30
2022-11-19T07:24:11.783Z,23.30
2022-11-19T07:27:38.635Z,22.20
2022-11-19T07:31:09.225Z,20.60
2022-11-19T07:34:35.870Z,22.90
2022-11-19T07:38:02.514Z,21.40
2022-11-19T07:41:47.081Z,20.90
2022-11-19T07:45:14.044Z,20.60
2022-11-19T07:48:40.700Z,18.10
2022-11-19T07:52:07.452Z,19.20
2022-11-19T07:55:34.374Z,20.00
2022-11-19T07:59:04.719Z,19.00
2022-11-19T08:02:32.202Z,18.70
2022-11-19T08:05:58.993Z,19.30
2022-11-19T08:09:25.661Z,17.00
2022-11-19T08:13:03.268Z,18.50
2022-11-19T08:16:47.917Z,18.20
2022-11-19T08:20:15.058Z,18.30
2022-11-19T08:23:42.176Z,22.90
2022-11-19T08:27:09.245Z,21.90
2022-11-19T08:30:36.215Z,22.80
2022-11-19T08:34:03.782Z,25.60
2022-11-19T08:37:30.775Z,21.60
2022-11-19T08:41:12.287Z,23.50
2022-11-19T08:44:38.880Z,23.40
2022-11-19T08:48:10.333Z,22.10
2022-11-19T08:51:37.110Z,23.10
2022-11-19T08:55:03.818Z,22.80
2022-11-19T08:58:30.400Z,24.40
2022-11-19T09:01:57.123Z,22.50
2022-11-19T09:05:24.578Z,22.10
2022-11-19T09:08:51.871Z,20.80
2022-11-19T09:12:18.780Z,23.20
2022-11-19T09:15:49.046Z,21.60
2022-11-19T09:19:15.812Z,19.40
2022-11-19T09:22:42.880Z,20.30
2022-11-19T09:26:13.432Z,18.40
2022-11-19T09:29:40.185Z,19.00
2022-11-19T09:33:06.771Z,17.90
2022-11-19T09:36:33.399Z,17.20
2022-11-19T09:40:00.080Z,18.10
2022-11-19T09:43:43.439Z,20.60
2022-11-19T09:47:24.116Z,17.80
2022-11-19T09:50:55.166Z,16.20
2022-11-19T09:54:24.399Z,18.30
2022-11-19T09:57:54.120Z,18.50
2022-11-19T10:04:48.558Z,15.20
2022-11-19T10:08:29.754Z,17.70
2022-11-19T10:12:08.026Z,18.00
2022-11-19T10:15:39.225Z,17.10
2022-11-19T10:19:15.353Z,17.10
2022-11-19T10:22:56.936Z,18.40
2022-11-19T10:26:33.701Z,17.90
2022-11-19T10:30:05.449Z,18.80
2022-11-19T10:33:36.344Z,20.40
2022-11-19T10:37:09.740Z,20.30
2022-11-19T10:40:42.309Z,18.90
2022-11-19T10:44:35.434Z,17.70
2022-11-19T10:48:09.313Z,19.10
2022-11-19T10:51:43.208Z,20.00
2022-11-19T10:55:19.871Z,18.70
2022-11-19T10:58:51.510Z,17.70
2022-11-19T11:02:28.435Z,16.80
2022-11-19T11:06:02.042Z,16.80
2022-11-19T11:09:34.916Z,13.80
2022-11-19T11:13:35.269Z,16.00
2022-11-19T11:17:03.113Z,16.20
2022-11-19T11:20:32.160Z,14.20
2022-11-19T11:24:00.676Z,14.80
2022-11-19T11:27:33.710Z,13.90
2022-11-19T11:31:02.478Z,13.00
2022-11-19T11:34:34.436Z,13.70
2022-11-19T11:38:02.997Z,14.30
2022-11-19T11:42:04.694Z,14.10
2022-11-19T11:45:33.560Z,15.50
2022-11-19T11:49:06.885Z,15.60
2022-11-19T11:52:41.898Z,15.50
2022-11-19T11:56:11.449Z,14.70
2022-11-19T11:59:38.588Z,17.00
2022-11-19T12:03:07.279Z,16.80
2022-11-19T12:06:42.685Z,14.80
2022-11-19T12:10:21.919Z,13.30
2022-11-19T12:13:58.388Z,16.10
2022-11-19T12:17:38.698Z,15.50
2022-11-19T12:21:12.196Z,15.20
2022-11-19T12:24:56.491Z,16.10
2022-11-19T12:28:33.087Z,15.60
2022-11-19T12:32:22.357Z,15.80
2022-11-19T12:35:57.754Z,16.30
2022-11-19T12:39:37.571Z,17.20
2022-11-19T12:43:16.178Z,17.30
2022-11-19T12:46:52.018Z,15.30
2022-11-19T12:50:27.063Z,13.80
2022-11-19T12:54:22.419Z,12.90
2022-11-19T12:58:02.843Z,12.80
2022-11-19T13:01:34.205Z,9.30
2022-11-19T13:05:07.621Z,9.20
2022-11-19T13:08:39.194Z,8.10
2022-11-19T13:12:09.528Z,8.50
2022-11-19T13:15:41.216Z,9.50
2022-11-19T13:19:21.105Z,9.80
2022-11-19T13:22:51.858Z,9.00
2022-11-19T13:26:21.765Z,9.10
2022-11-19T13:29:54.129Z,9.50
2022-11-19T13:33:23.976Z,10.50
2022-11-19T13:36:59.712Z,9.80
2022-11-19T13:40:31.731Z,9.50
2022-11-19T13:44:22.766Z,10.50
2022-11-19T13:47:58.120Z,12.70
2022-11-19T13:51:31.671Z,11.60
2022-11-19T13:55:00.719Z,12.50
2022-11-19T13:58:33.909Z,14.40
2022-11-19T14:02:21.836Z,15.80
2022-11-19T14:06:08.700Z,13.30
2022-11-19T14:09:45.705Z,13.90
2022-11-19T14:13:34.932Z,14.70
2022-11-19T14:17:25.175Z,13.40
2022-11-19T14:21:09.749Z,15.80
2022-11-19T14:25:12.271Z,17.20
2022-11-19T14:28:56.966Z,21.10
2022-11-19T14:32:31.858Z,22.80
2022-11-19T14:35:58.596Z,25.50
2022-11-19T14:39:29.794Z,21.90
2022-11-19T14:43:46.424Z,21.70
2022-11-19T14:47:35.034Z,20.30
2022-11-19T14:51:07.428Z,17.20
2022-11-19T14:54:43.997Z,20.40
2022-11-19T14:58:24.380Z,20.70
2022-11-19T15:02:02.568Z,21.70
2022-11-19T15:05:34.571Z,23.20
2022-11-19T15:09:02.243Z,22.20
2022-11-19T15:12:46.654Z,20.70
2022-11-19T15:16:16.045Z,20.50
2022-11-19T15:19:51.862Z,22.70
2022-11-19T15:23:27.146Z,19.70
2022-11-19T15:27:01.409Z,19.00
2022-11-19T15:30:41.813Z,20.70
2022-11-19T15:34:38.472Z,18.60
2022-11-19T15:38:31.046Z,20.40
2022-11-19T15:42:02.303Z,20.10
2022-11-19T15:45:32.565Z,17.60
2022-11-19T15:49:07.365Z,17.90
2022-11-19T15:52:34.678Z,17.20
2022-11-19T15:56:04.070Z,17.70
2022-11-19T15:59:33.944Z,17.10
2022-11-19T16:03:01.982Z,17.30
2022-11-19T16:06:30.475Z,16.40
2022-11-19T16:09:58.108Z,15.70
2022-11-19T16:13:43.949Z,15.40
2022-11-19T16:17:41.734Z,16.20
2022-11-19T16:21:10.121Z,17.30
2022-11-19T16:24:54.577Z,19.50
2022-11-19T16:28:30.466Z,17.80
2022-11-19T16:32:00.597Z,17.90
2022-11-19T16:35:29.733Z,16.60
2022-11-19T16:38:57.288Z,17.10
2022-11-19T16:42:42.284Z,18.30
2022-11-19T16:46:11.423Z,20.20
2022-11-19T16:49:52.751Z,18.70
2022-11-19T16:53:48.545Z,19.00
2022-11-19T16:57:19.241Z,19.60
2022-11-19T17:00:49.779Z,17.80
2022-11-19T17:04:16.711Z,20.10
2022-11-19T17:07:48.087Z,20.50
2022-11-19T17:11:38.576Z,21.40
2022-11-19T17:15:36.772Z,22.00
2022-11-19T17:19:13.990Z,12.50
2022-11-19T17:22:41.781Z,21.50
2022-11-19T17:26:09.548Z,21.30
2022-11-19T17:29:36.274Z,18.90
2022-11-19T17:33:05.772Z,19.30
2022-11-19T17:36:33.489Z,16.50
2022-11-19T17:40:00.197Z,19.10
2022-11-19T17:43:49.095Z,18.70
2022-11-19T17:47:22.862Z,18.00
2022-11-19T17:50:51.633Z,18.60
2022-11-19T17:54:18.719Z,17.70
2022-11-19T17:57:45.939Z,18.10
2022-11-19T18:01:13.575Z,18.80
2022-11-19T18:04:40.245Z,18.20
2022-11-19T18:08:07.268Z,18.90
2022-11-19T18:11:34.386Z,19.50
2022-11-19T18:15:02.327Z,17.20
2022-11-19T18:18:29.198Z,17.40
2022-11-19T18:21:56.230Z,17.70
2022-11-19T18:25:23.496Z,16.50
2022-11-19T18:28:50.271Z,18.50
2022-11-19T18:32:17.247Z,17.20
2022-11-19T18:35:44.279Z,17.20
2022-11-19T18:39:10.907Z,16.40
2022-11-19T18:42:37.535Z,16.70
2022-11-19T18:46:04.099Z,18.10
2022-11-19T18:49:30.859Z,16.50
2022-11-19T18:52:57.463Z,15.50
2022-11-19T18:56:24.403Z,16.70
2022-11-19T18:59:51.011Z,16.40
2022-11-19T19:03:17.678Z,16.90
2022-11-19T19:06:44.726Z,14.20
2022-11-19T19:10:13.883Z,17.00
2022-11-19T19:13:40.541Z,16.70
2022-11-19T19:17:07.469Z,16.10
2022-11-19T19:20:36.078Z,16.00
2022-11-19T19:24:05.205Z,14.90
2022-11-19T19:27:31.814Z,15.70
2022-11-19T19:31:01.072Z,14.70
2022-11-19T19:34:29.026Z,15.30
2022-11-19T19:37:56.145Z,16.50
2022-11-19T19:41:25.333Z,13.80
2022-11-19T19:48:17.533Z,14.00
2022-11-19T19:51:44.413Z,12.80
2022-11-19T19:55:11.870Z,13.50
2022-11-19T19:58:38.967Z,15.40
2022-11-19T20:02:05.707Z,16.10
2022-11-19T20:05:32.813Z,14.80
2022-11-19T20:09:03.179Z,14.90
2022-11-19T20:12:47.514Z,16.60
2022-11-19T20:16:19.570Z,15.10
2022-11-19T20:19:46.487Z,14.20
2022-11-19T20:23:13.302Z,13.50
2022-11-19T20:26:40.502Z,15.60
2022-11-19T20:30:09.594Z,14.20
2022-11-19T20:33:37.135Z,14.40
2022-11-19T20:37:04.244Z,13.10
2022-11-19T20:40:31.268Z,12.70
2022-11-19T20:44:15.426Z,12.10
2022-11-19T20:47:42.517Z,12.70
2022-11-19T20:51:09.724Z,12.60
2022-11-19T20:54:37.038Z,11.70
2022-11-19T20:58:03.781Z,12.30
2022-11-19T21:01:31.547Z,12.80
2022-11-19T21:04:58.329Z,13.40
2022-11-19T21:08:25.431Z,15.20
2022-11-19T21:11:52.393Z,13.80
2022-11-19T21:15:19.280Z,13.90
2022-11-19T21:18:46.430Z,15.10
2022-11-19T21:22:13.421Z,13.30
2022-11-19T21:25:40.097Z,14.00
2022-11-19T21:29:07.075Z,13.20
2022-11-19T21:32:33.915Z,14.50
2022-11-19T21:36:03.278Z,14.30
2022-11-19T21:39:30.016Z,14.80
2022-11-19T21:42:56.728Z,14.40
2022-11-19T21:46:23.633Z,13.30
2022-11-19T21:49:50.393Z,12.80
2022-11-19T21:53:18.539Z,13.90
2022-11-19T21:56:45.412Z,14.00
2022-11-19T22:00:14.474Z,13.90
2022-11-19T22:03:42.317Z,13.30
2022-11-19T22:07:09.585Z,13.70
2022-11-19T22:10:38.338Z,13.60
2022-11-19T22:14:09.598Z,13.50
2022-11-19T22:17:37.061Z,13.00
2022-11-19T22:21:04.984Z,12.20
2022-11-19T22:24:32.439Z,14.30
2022-11-19T22:27:59.068Z,13.90
2022-11-19T22:31:26.030Z,14.80
2022-11-19T22:34:53.044Z,13.40
2022-11-19T22:38:19.748Z,14.70
2022-11-19T22:41:46.721Z,14.00
2022-11-19T22:45:13.663Z,13.30
2022-11-19T22:48:40.876Z,13.60
2022-11-19T22:52:07.921Z,13.30
2022-11-19T22:55:37.116Z,13.60
2022-11-19T22:59:04.949Z,12.40
2022-11-19T23:02:32.795Z,13.40
2022-11-19T23:06:00.316Z,12.10
2022-11-19T23:09:26.932Z,11.80
2022-11-19T23:13:11.520Z,13.00
2022-11-19T23:16:38.793Z,12.40
2022-11-19T23:20:06.694Z,12.20
2022-11-19T23:23:33.638Z,11.40
2022-11-19T23:27:00.380Z,11.70
2022-11-19T23:30:27.095Z,12.50
2022-11-19T23:33:58.981Z,12.40
2022-11-19T23:37:26.472Z,13.60
2022-11-19T23:41:01.088Z,14.00
2022-11-19T23:44:28.054Z,13.10
2022-11-19T23:47:54.634Z,13.30
2022-11-19T23:51:23.897Z,12.00
2022-11-19T23:54:50.583Z,13.20
2022-11-19T23:58:17.301Z,12.70
